Time;durP1;ratioP1;P1;durP2;ratioP2;P2;SDS_P1;SDS_P2;PMS_P1;PMS_P2;Temp;Humidity;BMP_temperature;BMP_pressure;BME280_temperature;BME280_humidity;BME280_pressure;Samples;Min_cycle;Max_cycle;Signal;HPM_P1;HPM_P2
2022/10/13 00:00:59;;;;;;;67.23;54.87;;;7.30;99.90;;;;;;5131222;27;20632;-51
2022/10/13 00:03:27;;;;;;;61.10;50.43;;;7.30;99.90;;;;;;5130784;27;20227;-52
2022/10/13 00:05:55;;;;;;;95.40;69.27;;;7.30;99.90;;;;;;5130159;27;20267;-51
2022/10/13 00:08:25;;;;;;;71.30;51.70;;;7.20;99.90;;;;;;5130924;27;20208;-51
2022/10/13 00:10:53;;;;;;;90.90;66.03;;;7.30;99.90;;;;;;5130872;27;20293;-51
2022/10/13 00:13:21;;;;;;;110.47;80.37;;;7.30;99.90;;;;;;5130790;27;20210;-51
2022/10/13 00:15:50;;;;;;;94.40;81.00;;;7.30;99.90;;;;;;5129545;27;20228;-52
2022/10/13 00:18:18;;;;;;;94.53;63.63;;;7.30;99.90;;;;;;5130679;27;20679;-51
2022/10/13 00:20:49;;;;;;;64.00;55.20;;;7.30;99.90;;;;;;5130332;27;20743;-51
2022/10/13 00:23:17;;;;;;;86.93;56.97;;;7.40;99.90;;;;;;5130749;27;20293;-49
2022/10/13 00:25:47;;;;;;;68.30;48.43;;;7.40;99.90;;;;;;5130660;27;20319;-50
2022/10/13 00:28:16;;;;;;;366.60;284.77;;;7.40;99.90;;;;;;5130926;27;20230;-52
2022/10/13 00:30:44;;;;;;;176.47;94.43;;;7.40;99.90;;;;;;5128126;27;20196;-51
2022/10/13 00:33:14;;;;;;;138.70;86.17;;;7.40;99.90;;;;;;5129178;27;20209;-50
2022/10/13 00:35:43;;;;;;;108.90;92.30;;;7.40;99.90;;;;;;5130448;27;21113;-51
2022/10/13 00:38:11;;;;;;;127.30;81.87;;;7.50;99.90;;;;;;5130434;27;20286;-51
2022/10/13 00:40:47;;;;;;;335.60;188.53;;;7.50;99.90;;;;;;5140595;27;20297;-51
2022/10/13 00:43:17;;;;;;;93.50;62.67;;;7.50;99.90;;;;;;5131038;27;20235;-51
2022/10/13 00:45:48;;;;;;;69.40;42.83;;;7.60;99.90;;;;;;5129949;28;20320;-52
2022/10/13 00:48:20;;;;;;;462.73;309.97;;;7.60;99.90;;;;;;5128869;27;20306;-50
2022/10/13 00:50:49;;;;;;;204.13;145.40;;;7.70;99.90;;;;;;5131008;27;20221;-49
2022/10/13 00:53:20;;;;;;;149.67;85.17;;;7.70;99.90;;;;;;5130175;27;20326;-50
2022/10/13 00:55:51;;;;;;;264.73;187.50;;;7.70;99.90;;;;;;5130533;27;20215;-50
2022/10/13 00:58:22;;;;;;;139.70;92.33;;;7.70;99.90;;;;;;5130675;27;20282;-49
2022/10/13 01:00:52;;;;;;;122.70;68.37;;;7.80;99.90;;;;;;5130548;27;20683;-51
2022/10/13 01:03:22;;;;;;;69.30;35.60;;;7.80;99.90;;;;;;5130219;27;20203;-50
2022/10/13 01:05:52;;;;;;;209.27;109.20;;;7.80;99.90;;;;;;5130375;27;20598;-51
2022/10/13 01:08:21;;;;;;;163.93;103.27;;;7.90;99.90;;;;;;5130662;27;20301;-51
2022/10/13 01:11:00;;;;;;;318.60;219.70;;;7.90;99.90;;;;;;5130325;27;20211;-51
2022/10/13 01:13:37;;;;;;;45.50;29.03;;;8.00;99.90;;;;;;5129964;27;20286;-51
2022/10/13 01:16:12;;;;;;;258.97;148.70;;;8.00;99.90;;;;;;5130567;27;20272;-50
2022/10/13 01:18:49;;;;;;;115.40;58.77;;;8.10;99.90;;;;;;5130328;27;20195;-50
2022/10/13 01:21:28;;;;;;;112.57;53.60;;;8.10;99.90;;;;;;5130260;27;20214;-51
2022/10/13 01:24:32;;;;;;;94.93;48.90;;;8.10;99.90;;;;;;5129818;27;20285;-52
2022/10/13 01:27:08;;;;;;;166.90;94.33;;;8.10;99.90;;;;;;5114975;27;20286;-51
2022/10/13 01:30:04;;;;;;;220.03;46.00;;;8.10;99.90;;;;;;5134212;27;20293;-51
2022/10/13 01:32:43;;;;;;;152.53;48.17;;;8.10;99.90;;;;;;5121417;27;20425;-50
2022/10/13 01:35:15;;;;;;;164.80;67.40;;;8.20;99.90;;;;;;5133315;27;20309;-51
2022/10/13 01:37:48;;;;;;;165.23;60.30;;;8.20;99.90;;;;;;5134482;27;20195;-51
2022/10/13 01:40:22;;;;;;;151.83;67.43;;;8.20;99.90;;;;;;5133790;27;20203;-51
2022/10/13 01:42:58;;;;;;;343.27;166.13;;;8.30;99.90;;;;;;5133904;27;20231;-51
2022/10/13 01:45:32;;;;;;;255.03;89.17;;;8.30;99.90;;;;;;5133997;27;20318;-51
2022/10/13 01:48:02;;;;;;;365.03;79.93;;;8.30;99.90;;;;;;5134035;27;20968;-50
2022/10/13 01:50:34;;;;;;;184.60;48.10;;;8.40;99.90;;;;;;5134293;27;20207;-51
2022/10/13 01:53:05;;;;;;;346.47;65.53;;;8.40;99.90;;;;;;5134053;27;20206;-51
2022/10/13 01:55:33;;;;;;;206.80;82.07;;;8.40;99.90;;;;;;5133574;27;20251;-52
2022/10/13 01:58:01;;;;;;;478.57;188.77;;;8.40;99.90;;;;;;5134123;27;20285;-51
2022/10/13 02:00:42;;;;;;;599.20;336.07;;;8.50;99.90;;;;;;5134400;27;20210;-50
2022/10/13 02:03:21;;;;;;;377.47;127.10;;;8.50;99.90;;;;;;5133803;27;20302;-50
2022/10/13 02:05:58;;;;;;;408.13;195.97;;;8.60;99.90;;;;;;5133724;27;20258;-51
2022/10/13 02:08:36;;;;;;;472.90;164.60;;;8.60;99.90;;;;;;5133504;27;20327;-51
2022/10/13 02:11:14;;;;;;;511.63;247.80;;;8.60;99.90;;;;;;5133950;27;20288;-51
2022/10/13 02:13:48;;;;;;;304.10;51.13;;;8.70;99.90;;;;;;5133165;27;20285;-51
2022/10/13 02:16:19;;;;;;;477.40;195.97;;;8.70;99.90;;;;;;5133856;27;20210;-52
2022/10/13 02:18:47;;;;;;;604.67;232.87;;;8.80;99.90;;;;;;5133171;27;20225;-51
2022/10/13 02:21:16;;;;;;;598.47;154.37;;;8.80;99.90;;;;;;5133151;27;20203;-51
2022/10/13 02:23:46;;;;;;;364.37;158.77;;;8.80;99.90;;;;;;5132086;27;20211;-50
2022/10/13 02:26:14;;;;;;;403.63;71.33;;;8.80;99.90;;;;;;5133071;27;20290;-51
2022/10/13 02:28:42;;;;;;;475.80;193.33;;;8.80;99.90;;;;;;5132721;27;20314;-50
2022/10/13 02:31:10;;;;;;;331.43;138.20;;;8.90;99.90;;;;;;5126014;27;20226;-51
2022/10/13 02:33:40;;;;;;;404.67;194.33;;;8.90;99.90;;;;;;5126045;27;20206;-52
2022/10/13 02:36:08;;;;;;;755.67;327.93;;;8.90;99.90;;;;;;5132869;27;20214;-51
2022/10/13 02:38:36;;;;;;;539.23;167.30;;;9.00;99.90;;;;;;5132286;27;20582;-52
2022/10/13 02:41:04;;;;;;;252.97;67.40;;;9.00;99.90;;;;;;5132458;27;20216;-51
2022/10/13 02:43:32;;;;;;;434.63;77.97;;;9.00;99.90;;;;;;5132685;27;20221;-51
2022/10/13 02:46:00;;;;;;;673.00;265.20;;;9.00;99.90;;;;;;5132441;27;20229;-50
2022/10/13 02:48:28;;;;;;;564.03;203.07;;;9.00;99.90;;;;;;5132999;27;20310;-51
2022/10/13 02:50:58;;;;;;;1045.47;498.80;;;9.00;99.90;;;;;;5132788;27;20211;-50
2022/10/13 02:53:26;;;;;;;738.67;343.50;;;9.10;99.90;;;;;;5131972;27;20207;-51
2022/10/13 02:55:54;;;;;;;383.27;140.23;;;9.00;99.90;;;;;;5132020;27;20233;-50
2022/10/13 02:58:22;;;;;;;421.07;63.73;;;9.00;99.90;;;;;;5132779;27;20203;-50
2022/10/13 03:00:50;;;;;;;365.13;82.27;;;9.00;99.90;;;;;;5133224;27;20220;-50
2022/10/13 03:03:18;;;;;;;478.53;167.43;;;9.00;99.90;;;;;;5132122;27;20222;-51
2022/10/13 03:05:46;;;;;;;423.47;189.17;;;9.00;99.90;;;;;;5132179;27;20724;-51
2022/10/13 03:08:15;;;;;;;351.77;70.83;;;9.00;99.90;;;;;;5117339;27;20229;-52
2022/10/13 03:10:43;;;;;;;604.53;281.50;;;9.00;99.90;;;;;;5132408;27;20289;-50
2022/10/13 03:13:11;;;;;;;447.33;55.73;;;9.00;99.90;;;;;;5131640;27;20203;-50
2022/10/13 03:15:39;;;;;;;399.40;119.13;;;9.10;99.90;;;;;;5132556;27;20305;-51
2022/10/13 03:18:07;;;;;;;638.00;84.23;;;9.10;99.90;;;;;;5131948;27;20656;-51
2022/10/13 03:20:36;;;;;;;657.87;174.03;;;9.10;99.90;;;;;;5132126;27;20210;-52
2022/10/13 03:23:05;;;;;;;832.53;336.70;;;9.10;99.90;;;;;;5131278;27;20299;-51
2022/10/13 03:25:35;;;;;;;1028.73;448.17;;;9.10;99.90;;;;;;5131902;27;20225;-51
2022/10/13 03:28:03;;;;;;;983.23;438.27;;;9.10;99.90;;;;;;5131369;27;20742;-52
2022/10/13 03:30:31;;;;;;;691.47;321.53;;;9.20;99.90;;;;;;5130133;27;20755;-51
2022/10/13 03:32:59;;;;;;;662.73;226.83;;;9.20;99.90;;;;;;5125327;27;20297;-51
2022/10/13 03:35:27;;;;;;;562.60;147.07;;;9.20;99.90;;;;;;5132016;27;20223;-50
2022/10/13 03:37:55;;;;;;;385.30;91.83;;;9.20;99.90;;;;;;5131480;27;20638;-50
2022/10/13 03:40:23;;;;;;;119.33;31.30;;;9.20;99.90;;;;;;5131074;27;20207;-51
2022/10/13 03:42:53;;;;;;;775.07;272.60;;;9.20;99.90;;;;;;5131435;27;20303;-52
2022/10/13 03:45:21;;;;;;;554.70;155.50;;;9.20;99.90;;;;;;5131178;27;20230;-51
2022/10/13 03:47:49;;;;;;;659.97;205.17;;;9.20;99.90;;;;;;5130239;27;20289;-50
2022/10/13 03:50:17;;;;;;;383.40;113.43;;;9.20;99.90;;;;;;5129923;27;20342;-51
2022/10/13 03:52:45;;;;;;;548.63;175.70;;;9.20;99.90;;;;;;5130910;27;20204;-51
2022/10/13 03:55:13;;;;;;;428.30;59.27;;;9.10;99.90;;;;;;5130947;27;20235;-51
2022/10/13 03:57:41;;;;;;;401.77;136.50;;;9.20;99.90;;;;;;5131247;27;20204;-50
2022/10/13 04:00:13;;;;;;;497.47;185.87;;;9.20;99.90;;;;;;5130808;27;20286;-51
2022/10/13 04:02:41;;;;;;;597.07;234.37;;;9.20;99.90;;;;;;5130922;27;20266;-50
2022/10/13 04:05:09;;;;;;;523.00;151.53;;;9.20;99.90;;;;;;5130571;27;20234;-50
2022/10/13 04:07:37;;;;;;;990.00;449.63;;;9.20;99.90;;;;;;5131216;27;20286;-51
2022/10/13 04:10:06;;;;;;;613.67;281.63;;;9.20;99.90;;;;;;5130335;27;20223;-52
2022/10/13 04:12:38;;;;;;;860.07;312.47;;;9.20;99.90;;;;;;5130412;27;20216;-51
2022/10/13 04:15:07;;;;;;;582.23;277.50;;;9.30;99.90;;;;;;5131036;27;20594;-51
2022/10/13 04:17:37;;;;;;;718.87;332.30;;;9.30;99.90;;;;;;5130601;27;20214;-52
2022/10/13 04:20:06;;;;;;;989.87;536.97;;;9.30;99.90;;;;;;5130533;27;20207;-50
2022/10/13 04:22:34;;;;;;;334.93;87.03;;;9.30;99.90;;;;;;5130571;27;20217;-50
2022/10/13 04:25:03;;;;;;;304.10;40.93;;;9.30;99.90;;;;;;5129957;27;20603;-50
2022/10/13 04:27:31;;;;;;;498.13;242.93;;;9.40;99.90;;;;;;5130165;27;20218;-50
2022/10/13 04:29:59;;;;;;;471.20;189.07;;;9.40;99.90;;;;;;5130243;27;20218;-51
2022/10/13 04:32:27;;;;;;;503.10;188.40;;;9.40;99.90;;;;;;5122706;27;20317;-52
2022/10/13 04:34:57;;;;;;;589.63;266.40;;;9.40;99.90;;;;;;5130533;27;20599;-51
2022/10/13 04:37:25;;;;;;;669.50;300.50;;;9.40;99.90;;;;;;5130686;27;20272;-51
2022/10/13 04:39:53;;;;;;;376.83;168.53;;;9.40;99.90;;;;;;5125407;27;20648;-52
2022/10/13 04:42:21;;;;;;;605.27;253.93;;;9.40;99.90;;;;;;5130235;27;20203;-51
2022/10/13 04:44:49;;;;;;;371.27;168.57;;;9.40;99.90;;;;;;5130738;27;20227;-51
2022/10/13 04:47:17;;;;;;;542.63;211.13;;;9.40;99.90;;;;;;5130766;27;20294;-51
2022/10/13 04:49:45;;;;;;;465.23;236.13;;;9.40;99.90;;;;;;5130420;27;20223;-50
2022/10/13 04:52:15;;;;;;;356.17;170.20;;;9.40;99.90;;;;;;5129879;27;20195;-50
2022/10/13 04:54:43;;;;;;;501.87;247.17;;;9.40;99.90;;;;;;5130717;27;20325;-51
2022/10/13 04:57:11;;;;;;;481.67;212.20;;;9.40;99.90;;;;;;5129658;27;20207;-51
2022/10/13 04:59:39;;;;;;;399.33;140.27;;;9.40;99.90;;;;;;5131019;27;20195;-51
2022/10/13 05:02:08;;;;;;;283.20;36.13;;;9.30;99.90;;;;;;5137061;27;20779;-50
2022/10/13 05:04:36;;;;;;;386.47;125.30;;;9.40;99.90;;;;;;5137719;27;20604;-51
2022/10/13 05:07:04;;;;;;;357.10;101.77;;;9.40;99.90;;;;;;5137910;27;20293;-50
2022/10/13 05:09:46;;;;;;;362.80;116.60;;;9.30;99.90;;;;;;5130899;27;20329;-51
2022/10/13 05:12:15;;;;;;;455.97;167.63;;;9.30;99.90;;;;;;5131922;27;20647;-51
2022/10/13 05:14:43;;;;;;;222.60;85.63;;;9.30;99.90;;;;;;5133675;27;20258;-49
2022/10/13 05:17:11;;;;;;;424.27;148.27;;;9.30;99.90;;;;;;5134463;27;20292;-51
2022/10/13 05:19:40;;;;;;;214.57;36.27;;;9.30;99.90;;;;;;5133271;27;20659;-51
2022/10/13 05:22:08;;;;;;;239.07;81.07;;;9.40;99.90;;;;;;5133519;27;20664;-51
2022/10/13 05:24:39;;;;;;;368.90;142.87;;;9.40;99.90;;;;;;5134049;27;20309;-49
2022/10/13 05:27:11;;;;;;;492.47;243.97;;;9.30;99.90;;;;;;5133860;27;20222;-51
2022/10/13 05:29:39;;;;;;;640.53;192.20;;;9.40;99.90;;;;;;5134257;27;20316;-51
2022/10/13 05:32:08;;;;;;;237.83;111.10;;;9.40;99.90;;;;;;5131620;27;20199;-51
2022/10/13 05:34:36;;;;;;;303.20;176.43;;;9.40;99.90;;;;;;5133321;27;20706;-50
2022/10/13 05:37:04;;;;;;;272.17;95.17;;;9.40;99.90;;;;;;5132779;27;20866;-51
2022/10/13 05:39:32;;;;;;;520.93;192.20;;;9.40;99.90;;;;;;5134187;27;20195;-51
2022/10/13 05:42:00;;;;;;;327.97;171.33;;;9.40;99.90;;;;;;5133023;27;20324;-50
2022/10/13 05:44:30;;;;;;;283.43;134.70;;;9.40;99.90;;;;;;5134025;27;20235;-51
2022/10/13 05:46:58;;;;;;;291.67;146.37;;;9.40;99.90;;;;;;5133476;27;20210;-52
2022/10/13 05:49:31;;;;;;;279.03;130.57;;;9.50;99.90;;;;;;5133268;27;20229;-49
2022/10/13 05:52:03;;;;;;;300.13;96.43;;;9.50;99.90;;;;;;5133210;27;20297;-51
2022/10/13 05:54:36;;;;;;;426.27;170.67;;;9.40;99.90;;;;;;5133196;27;20305;-51
2022/10/13 05:57:08;;;;;;;305.33;139.53;;;9.40;99.90;;;;;;5133305;27;20238;-51
2022/10/13 05:59:41;;;;;;;526.03;289.10;;;9.50;99.90;;;;;;5133680;27;20201;-51
2022/10/13 06:02:13;;;;;;;486.23;185.83;;;9.50;99.90;;;;;;5133451;27;20270;-52
2022/10/13 06:04:45;;;;;;;383.83;128.33;;;9.50;99.90;;;;;;5132909;27;20229;-51
2022/10/13 06:07:13;;;;;;;540.80;347.20;;;9.50;99.90;;;;;;5133922;27;20219;-51
2022/10/13 06:09:42;;;;;;;272.67;90.17;;;9.50;99.90;;;;;;5133280;27;20864;-50
2022/10/13 06:12:11;;;;;;;582.13;258.43;;;9.50;99.90;;;;;;5132420;27;20203;-51
2022/10/13 06:14:40;;;;;;;601.10;330.30;;;9.50;99.90;;;;;;5131879;27;20223;-51
2022/10/13 06:17:08;;;;;;;84.70;30.50;;;9.50;99.90;;;;;;5133696;27;20266;-50
2022/10/13 06:19:36;;;;;;;240.87;39.97;;;9.60;99.90;;;;;;5133014;27;20209;-51
2022/10/13 06:22:04;;;;;;;521.00;206.30;;;9.60;99.90;;;;;;5133190;27;20317;-50
2022/10/13 06:24:32;;;;;;;577.97;168.63;;;9.60;99.90;;;;;;5134080;27;20317;-51
2022/10/13 06:27:00;;;;;;;446.37;145.37;;;9.70;99.90;;;;;;5132981;27;20667;-50
2022/10/13 06:29:28;;;;;;;365.90;182.07;;;9.70;99.90;;;;;;5134389;27;20231;-51
2022/10/13 06:31:57;;;;;;;221.97;80.17;;;9.70;99.90;;;;;;5126360;27;20666;-51
2022/10/13 06:34:25;;;;;;;438.30;170.53;;;9.70;99.90;;;;;;5133321;27;20227;-51
2022/10/13 06:36:54;;;;;;;244.57;48.00;;;9.70;99.90;;;;;;5133042;27;20620;-51
2022/10/13 06:39:22;;;;;;;307.70;60.40;;;9.80;99.90;;;;;;5132991;27;20251;-51
2022/10/13 06:41:51;;;;;;;444.53;183.93;;;9.80;99.90;;;;;;5131550;27;20221;-50
2022/10/13 06:44:19;;;;;;;355.57;155.80;;;9.80;99.90;;;;;;5132573;27;20688;-50
2022/10/13 06:46:47;;;;;;;511.03;176.90;;;9.80;99.90;;;;;;5132564;27;20206;-49
2022/10/13 06:49:17;;;;;;;566.40;237.80;;;9.80;99.90;;;;;;5126394;27;20720;-50
2022/10/13 06:51:45;;;;;;;599.87;216.00;;;9.80;99.90;;;;;;5133309;27;20660;-51
2022/10/13 06:54:13;;;;;;;695.70;244.57;;;9.80;99.90;;;;;;5131905;27;20317;-50
2022/10/13 06:56:41;;;;;;;198.83;55.37;;;9.80;99.90;;;;;;5141611;27;20295;-51
2022/10/13 06:59:09;;;;;;;420.90;127.03;;;9.90;99.90;;;;;;5136967;27;20294;-51
2022/10/13 07:01:38;;;;;;;553.63;224.87;;;9.90;99.90;;;;;;5132028;27;20290;-50
2022/10/13 07:04:08;;;;;;;512.87;156.07;;;9.90;99.90;;;;;;5131008;27;20265;-49
2022/10/13 07:06:38;;;;;;;748.53;325.23;;;10.00;99.90;;;;;;5131746;27;20203;-50
2022/10/13 07:09:07;;;;;;;506.77;189.33;;;10.00;99.90;;;;;;5131953;27;20209;-51
2022/10/13 07:11:35;;;;;;;496.93;194.80;;;10.00;99.90;;;;;;5131876;27;20224;-51
2022/10/13 07:14:03;;;;;;;444.13;195.87;;;10.00;99.90;;;;;;5131981;27;20254;-51
2022/10/13 07:16:31;;;;;;;484.43;217.33;;;10.10;99.90;;;;;;5131991;27;20301;-52
2022/10/13 07:18:59;;;;;;;543.17;237.60;;;10.10;99.90;;;;;;5131412;27;20217;-50
2022/10/13 07:21:27;;;;;;;290.30;111.60;;;10.10;99.90;;;;;;5131492;27;20199;-51
2022/10/13 07:23:57;;;;;;;419.00;203.67;;;10.00;99.90;;;;;;5131667;27;20204;-51
2022/10/13 07:26:25;;;;;;;510.77;248.47;;;10.10;99.90;;;;;;5131502;27;20206;-50
2022/10/13 07:28:53;;;;;;;541.87;278.73;;;10.10;99.90;;;;;;5132070;27;20657;-50
2022/10/13 07:31:21;;;;;;;967.93;576.10;;;10.10;99.90;;;;;;5125541;27;20279;-51
2022/10/13 07:33:50;;;;;;;496.50;224.53;;;10.20;99.90;;;;;;5130241;27;20285;-49
2022/10/13 07:36:19;;;;;;;412.10;74.20;;;10.10;99.90;;;;;;5131310;27;20991;-51
2022/10/13 07:38:47;;;;;;;729.87;242.80;;;10.20;99.90;;;;;;5131540;27;20234;-50
2022/10/13 07:41:17;;;;;;;896.13;435.50;;;10.20;99.90;;;;;;5130986;27;20767;-49
2022/10/13 07:43:45;;;;;;;381.60;120.60;;;10.20;99.90;;;;;;5130911;27;20290;-51
2022/10/13 07:46:15;;;;;;;590.63;284.70;;;10.30;99.90;;;;;;5132101;27;20293;-51
2022/10/13 07:48:43;;;;;;;621.53;180.43;;;10.30;99.90;;;;;;5131221;27;20203;-51
2022/10/13 07:51:12;;;;;;;554.73;227.37;;;10.30;99.90;;;;;;5131541;27;20230;-51
2022/10/13 07:53:42;;;;;;;806.27;488.23;;;10.30;99.90;;;;;;5128179;27;20778;-51
2022/10/13 07:56:12;;;;;;;680.50;315.23;;;10.30;99.90;;;;;;5120100;27;20293;-51
2022/10/13 07:58:43;;;;;;;522.77;218.07;;;10.30;99.90;;;;;;5138644;27;20203;-51
2022/10/13 08:01:12;;;;;;;773.60;331.00;;;10.30;99.90;;;;;;5133172;27;20203;-51
2022/10/13 08:03:41;;;;;;;360.70;151.00;;;10.30;99.90;;;;;;5131108;27;20568;-50
2022/10/13 08:06:16;;;;;;;431.23;211.50;;;10.30;99.90;;;;;;5131584;27;20203;-50
2022/10/13 08:08:44;;;;;;;246.07;110.63;;;10.40;99.90;;;;;;5131697;27;20199;-51
2022/10/13 08:11:15;;;;;;;558.60;245.27;;;10.50;99.90;;;;;;5130663;27;21951;-52
2022/10/13 08:13:48;;;;;;;656.07;333.33;;;10.60;99.90;;;;;;5130559;27;20221;-50
2022/10/13 08:16:17;;;;;;;632.97;237.77;;;10.60;99.90;;;;;;5131423;27;20210;-51
2022/10/13 08:18:45;;;;;;;675.20;312.10;;;10.60;99.90;;;;;;5131629;27;20711;-52
2022/10/13 08:21:16;;;;;;;459.30;182.27;;;10.60;99.90;;;;;;5130973;27;20701;-50
2022/10/13 08:24:04;;;;;;;570.00;218.27;;;10.70;99.90;;;;;;5130871;27;20249;-51
2022/10/13 08:26:33;;;;;;;204.33;73.73;;;10.80;99.90;;;;;;5131250;27;20568;-51
2022/10/13 08:29:02;;;;;;;368.77;260.43;;;10.90;99.90;;;;;;5131444;27;20738;-51
2022/10/13 08:31:48;;;;;;;499.43;252.97;;;10.80;99.90;;;;;;5124991;27;20224;-51
2022/10/13 08:34:22;;;;;;;787.00;380.30;;;10.80;99.90;;;;;;5129931;27;20234;-49
2022/10/13 08:36:52;;;;;;;461.03;211.67;;;10.80;99.90;;;;;;5130524;27;20302;-50
2022/10/13 08:39:21;;;;;;;518.10;228.73;;;10.80;99.90;;;;;;5130894;27;20664;-51
2022/10/13 08:41:50;;;;;;;364.47;119.70;;;10.90;99.90;;;;;;5130145;27;20195;-49
2022/10/13 08:44:25;;;;;;;598.43;157.27;;;10.80;99.90;;;;;;5130179;27;20250;-51
2022/10/13 08:47:21;;;;;;;477.77;153.77;;;10.80;99.90;;;;;;5130656;27;20605;-51
2022/10/13 08:49:50;;;;;;;802.20;412.83;;;10.80;99.90;;;;;;5130197;27;20202;-50
2022/10/13 08:52:24;;;;;;;544.47;230.17;;;10.80;99.90;;;;;;5130136;27;20332;-51
2022/10/13 08:54:54;;;;;;;547.13;215.47;;;10.80;99.90;;;;;;5122585;27;20310;-51
2022/10/13 08:57:23;;;;;;;508.20;279.33;;;10.90;99.90;;;;;;5128395;27;20206;-51
2022/10/13 08:59:53;;;;;;;684.53;308.23;;;10.90;99.90;;;;;;5118651;27;20199;-51
2022/10/13 09:02:26;;;;;;;770.87;358.03;;;11.00;99.90;;;;;;5128679;28;20290;-51
2022/10/13 09:04:54;;;;;;;757.47;502.33;;;11.00;99.90;;;;;;5127801;28;20811;-51
2022/10/13 09:07:26;;;;;;;933.13;447.23;;;11.10;99.90;;;;;;5129731;27;20294;-51
2022/10/13 09:09:55;;;;;;;678.23;389.30;;;11.10;99.90;;;;;;5115812;28;20975;-50
2022/10/13 09:12:24;;;;;;;836.33;309.13;;;11.10;99.90;;;;;;5129998;27;20305;-51
2022/10/13 09:15:03;;;;;;;698.93;399.77;;;11.10;99.90;;;;;;5125667;27;20226;-50
2022/10/13 09:17:34;;;;;;;509.43;238.37;;;11.10;99.90;;;;;;5122163;28;20293;-49
2022/10/13 09:20:07;;;;;;;887.97;371.53;;;11.10;99.90;;;;;;5129548;27;20207;-50
2022/10/13 09:22:36;;;;;;;670.30;263.83;;;11.10;99.90;;;;;;5129516;27;20731;-50
2022/10/13 09:25:19;;;;;;;712.53;381.90;;;11.20;99.90;;;;;;5129013;27;20227;-51
2022/10/13 09:27:51;;;;;;;629.27;304.80;;;11.20;99.90;;;;;;5122973;28;20694;-51
2022/10/13 09:30:30;;;;;;;437.17;148.87;;;11.20;99.90;;;;;;5115921;28;20240;-51
2022/10/13 09:33:26;;;;;;;663.67;329.17;;;11.30;99.90;;;;;;5123776;28;20301;-51
2022/10/13 09:36:10;;;;;;;568.60;286.27;;;11.40;99.90;;;;;;5090904;28;20227;-52
2022/10/13 09:38:40;;;;;;;961.50;532.87;;;11.50;99.90;;;;;;5129113;27;20210;-51
2022/10/13 09:41:14;;;;;;;535.80;277.33;;;11.70;99.90;;;;;;5129907;27;20667;-51
2022/10/13 09:43:57;;;;;;;716.33;433.63;;;11.70;99.90;;;;;;5129307;27;20229;-52
2022/10/13 09:46:29;;;;;;;430.10;174.20;;;11.70;99.90;;;;;;5130253;27;20207;-50
2022/10/13 09:49:00;;;;;;;782.70;428.33;;;11.70;99.90;;;;;;5130124;27;21017;-51
2022/10/13 09:51:34;;;;;;;793.47;368.43;;;11.70;99.90;;;;;;5132224;27;20297;-51
2022/10/13 09:54:03;;;;;;;601.37;276.53;;;11.70;99.90;;;;;;5132873;27;20238;-50
2022/10/13 09:56:37;;;;;;;748.60;345.13;;;11.70;99.90;;;;;;5133044;27;20730;-51
2022/10/13 09:59:14;;;;;;;601.90;261.37;;;11.70;99.90;;;;;;5133440;27;20673;-51
2022/10/13 10:01:48;;;;;;;826.57;447.03;;;11.60;99.90;;;;;;5133869;27;20203;-52
2022/10/13 10:04:20;;;;;;;763.73;439.77;;;11.60;99.90;;;;;;5143305;27;20218;-51
2022/10/13 10:06:48;;;;;;;989.13;485.33;;;11.60;99.90;;;;;;5126421;27;20320;-50
2022/10/13 10:09:33;;;;;;;745.17;367.27;;;11.60;99.90;;;;;;5133086;27;20376;-50
2022/10/13 10:12:04;;;;;;;608.43;327.93;;;11.60;99.90;;;;;;5132204;27;20322;-50
2022/10/13 10:14:34;;;;;;;908.33;370.57;;;11.60;99.90;;;;;;5133342;27;20237;-51
2022/10/13 10:17:12;;;;;;;1192.63;556.57;;;11.60;99.90;;;;;;5133205;27;20897;-50
2022/10/13 10:19:49;;;;;;;1212.67;561.17;;;11.60;99.90;;;;;;5132660;27;20293;-51
2022/10/13 10:22:29;;;;;;;651.73;297.47;;;11.60;99.90;;;;;;5132907;27;20657;-50
2022/10/13 10:25:08;;;;;;;698.07;348.80;;;11.60;99.90;;;;;;5132511;27;20301;-50
2022/10/13 10:27:40;;;;;;;719.90;403.07;;;11.70;99.90;;;;;;5132794;27;20298;-51
2022/10/13 10:30:16;;;;;;;696.17;365.47;;;11.70;99.90;;;;;;5127942;27;20260;-50
2022/10/13 10:32:52;;;;;;;650.97;342.10;;;11.70;99.90;;;;;;5131150;27;20229;-50
2022/10/13 10:35:31;;;;;;;324.13;139.07;;;11.70;99.90;;;;;;5133748;27;20726;-51
2022/10/13 10:38:12;;;;;;;686.90;301.07;;;11.80;99.90;;;;;;5128995;27;20297;-52
2022/10/13 10:40:49;;;;;;;907.67;534.27;;;11.90;99.90;;;;;;5133789;27;20634;-50
2022/10/13 10:43:39;;;;;;;858.00;464.93;;;12.00;99.90;;;;;;5134937;27;20774;-51
2022/10/13 10:46:16;;;;;;;881.67;408.53;;;12.20;99.90;;;;;;5135465;27;20245;-51
2022/10/13 10:48:49;;;;;;;979.67;546.93;;;12.30;99.90;;;;;;5134538;27;21014;-51
2022/10/13 10:51:18;;;;;;;618.53;380.57;;;12.40;99.90;;;;;;5131905;27;20302;-51
2022/10/13 10:53:57;;;;;;;865.07;524.40;;;12.40;99.90;;;;;;5131032;27;20219;-50
2022/10/13 10:56:32;;;;;;;943.90;405.43;;;12.40;99.90;;;;;;5131295;27;20736;-50
2022/10/13 10:59:11;;;;;;;878.23;532.20;;;12.50;99.90;;;;;;5131476;27;20301;-51
2022/10/13 11:01:47;;;;;;;1139.07;487.50;;;12.50;99.90;;;;;;5131559;27;20198;-51
2022/10/13 11:04:40;;;;;;;647.73;297.03;;;12.60;99.90;;;;;;5131962;27;20291;-51
2022/10/13 11:07:13;;;;;;;991.43;457.80;;;12.70;99.90;;;;;;5131872;27;20290;-50
2022/10/13 11:10:17;;;;;;;929.67;569.30;;;12.60;99.90;;;;;;5131354;27;20302;-50
2022/10/13 11:12:48;;;;;;;709.37;288.13;;;12.70;99.90;;;;;;5125938;27;20230;-50
2022/10/13 11:15:23;;;;;;;935.17;465.00;;;12.60;99.90;;;;;;5132067;27;20254;-51
2022/10/13 11:17:52;;;;;;;1444.20;550.77;;;12.60;99.90;;;;;;5131656;27;20210;-52
2022/10/13 11:20:49;;;;;;;970.80;434.23;;;12.50;99.90;;;;;;5126224;27;20297;-51
2022/10/13 11:23:32;;;;;;;839.33;464.77;;;12.40;99.90;;;;;;5120782;27;20747;-51
2022/10/13 11:26:30;;;;;;;791.07;454.93;;;12.40;99.90;;;;;;5131492;27;20247;-51
2022/10/13 11:28:59;;;;;;;621.43;308.87;;;12.50;99.90;;;;;;5106422;27;20238;-50
2022/10/13 11:31:30;;;;;;;622.63;310.63;;;12.60;99.90;;;;;;5133136;27;20296;-51
2022/10/13 11:34:03;;;;;;;820.50;410.97;;;12.70;99.90;;;;;;5130894;27;20634;-52
2022/10/13 11:36:51;;;;;;;629.13;323.83;;;12.70;99.90;;;;;;5131768;27;20677;-51
2022/10/13 11:39:59;;;;;;;724.47;281.53;;;12.80;99.90;;;;;;5130922;27;20238;-51
2022/10/13 11:43:06;;;;;;;695.70;418.80;;;12.90;99.90;;;;;;5118431;27;20800;-51
2022/10/13 11:45:57;;;;;;;598.70;324.10;;;13.00;99.90;;;;;;5131118;27;20227;-50
2022/10/13 11:48:53;;;;;;;1066.80;381.30;;;13.20;99.90;;;;;;5132660;27;20229;-52
2022/10/13 11:51:32;;;;;;;731.90;341.37;;;13.40;99.90;;;;;;5152224;27;20210;-51
2022/10/13 11:54:12;;;;;;;925.00;475.57;;;13.50;99.90;;;;;;5138816;27;20296;-51
2022/10/13 11:56:47;;;;;;;1137.53;555.67;;;13.50;99.90;;;;;;5134210;27;20647;-50
2022/10/13 11:59:21;;;;;;;945.97;494.63;;;13.40;99.90;;;;;;5131165;27;20198;-51
2022/10/13 12:01:53;;;;;;;1054.47;544.40;;;13.50;99.90;;;;;;5130581;27;20203;-52
2022/10/13 12:04:23;;;;;;;1304.20;559.23;;;13.40;99.90;;;;;;5129962;27;20661;-52
2022/10/13 12:07:00;;;;;;;1061.33;543.63;;;13.40;99.90;;;;;;5130952;27;20706;-51
2022/10/13 12:09:31;;;;;;;845.57;491.13;;;13.30;99.90;;;;;;5130337;27;20659;-51
2022/10/13 12:12:03;;;;;;;830.10;460.23;;;13.20;99.90;;;;;;5129689;27;20431;-51
2022/10/13 12:14:38;;;;;;;1162.47;511.93;;;13.30;99.90;;;;;;5129573;27;20295;-50
2022/10/13 12:17:22;;;;;;;1082.23;452.33;;;13.30;99.90;;;;;;5131134;27;20199;-52
2022/10/13 12:19:52;;;;;;;1006.00;394.13;;;13.30;99.90;;;;;;5121137;27;20807;-51
2022/10/13 12:22:21;;;;;;;963.83;471.20;;;13.40;99.90;;;;;;5130060;27;20271;-51
2022/10/13 12:25:00;;;;;;;897.10;413.10;;;13.40;99.90;;;;;;5129543;27;20231;-51
2022/10/13 12:27:32;;;;;;;900.80;348.07;;;13.50;99.90;;;;;;5130620;27;20221;-50
2022/10/13 12:30:01;;;;;;;1111.10;425.90;;;13.60;99.90;;;;;;5130438;27;20635;-52
2022/10/13 12:32:32;;;;;;;715.10;359.20;;;13.70;99.90;;;;;;5122403;27;20214;-51
2022/10/13 12:35:10;;;;;;;1122.63;535.23;;;13.60;99.90;;;;;;5129960;27;20254;-51
2022/10/13 12:37:39;;;;;;;939.57;451.17;;;13.70;99.90;;;;;;5129569;27;20291;-51
2022/10/13 12:40:15;;;;;;;1120.70;578.43;;;13.70;99.90;;;;;;5121587;27;20203;-51